SBEGSBEK

Guest
Details From SBEG - Eduardo Gomes
To SBEK - JACAREACANGA
Flight Number -
Tags generated
Created
Modified
Stats Distance 236 nm / 437 km
Max Altitude 13,400 ft / 4,084 m
Waypoints 4
Social Downloads 0
Likes 0
Share VATSIM

Download

Looking for another format? Having issues loading an existing format? Contact us
Advertisement - Login to hide

Notes

Basic altitude profile: - Ascent Rate: 2500ft/min - Ascent Speed: 250kts - Cruise Altitude: 35000ft - Cruise Speed: 420kts - Descent Rate: 1500ft/min - Descent Speed: 250kts Options: - Use NATs: yes - Use PACOTS: yes - Use low airways: yes - Use high airways: no

Route

SBEG REBUM G678 JAC SBEK

ID Type Via Altitude Latitude Longitude Leg Dist Tot Dist Heading (true) Name
O SBEG APT - 0 ft / 0 m -3.03861˚ -60.04972˚ - 0 nm - Eduardo Gomes
REBUM FIX - 13,400 ft / 4,084 m -3.57617˚ -59.72967˚ 37 nm 37 nm 149° / 149° -
JAC VOR G678 (AWY-LO) 3,500 ft / 1,067 m -6.23567˚ -57.77050˚ 198 nm 235 nm 144° / 144° JACAREACANGA VOR-DME
O SBEK APT - 0 ft / 0 m -6.23315˚ -57.77687˚ 0 nm 236 nm 292° / 292° JACAREACANGA

Altitude Profile

Advertisement - Login to hide

Weather


0- 5 10 15 20 25 30 35+ Temperature / ° C

Clouds and Precipitation
Forecast for 2017-12-13 00:00 UTC. Updated 20 minutes ago

Ground ~20,000 ft ~40,000 ft Winds

SBEG

Details ICAO SBEG (MAO)
Name Eduardo Gomes
Region Brazil
Timezone America/Manaus (UTC-4.0)
Stats Elevation 264 ft / 80 m (AMSL)
Location -3.038611° -60.049723°
Runways 1
Magnetic Variation 15.760° W

METAR

SBEG 121900Z 36002KT 9999 FEW005 SCT015 FEW025TCU BKN080 25/23 Q1009

Decode

TAF

TAF SBEG 121600Z 1218/1318 36005KT 9999 SCT010 FEW025TCU TN23/1308Z TX30/1318Z PROB30 TEMPO 1218/1221 5000 TSRA BKN010 FEW025CB BECMG 1222/1224 00000KT FEW010 PROB30 1308/1311 0500 FG BKN005 BECMG 1311/1313 21005KT BKN010 BECMG 1315/1317 09005KT SCT020 FEW025TCU RMK PEH

Decode

Departure Runways

ID Width Length Bearing (true) Bearing (mag) Surface Threshold Offset Overrun Length
10 148 ft / 45 m 8,867 ft / 2,703 m 90.13° 105.89° Asphalt 0 ft / 0 m 215 ft / 66 m
28 148 ft / 45 m 8,867 ft / 2,703 m 270.13° 285.89° Asphalt 0 ft / 0 m 250 ft / 76 m

SBEK

Details ICAO SBEK
Name JACAREACANGA
Region Brazil
Timezone America/Santarem (UTC-3.0)
Stats Elevation 324 ft / 99 m (AMSL)
Location -6.233155° -57.776869°
Runways 1
Magnetic Variation 16.996° W

METAR

SBEK 121800Z 20003KT 9999 TS SCT015 FEW025CB BKN100 30/26 Q1008

Decode

TAF

Not found

Destination Runways

ID Width Length Bearing (true) Bearing (mag) Surface Threshold Offset Overrun Length
08 98 ft / 30 m 5,259 ft / 1,603 m 62.95° 79.95° Asphalt 0 ft / 0 m 205 ft / 62 m
26 98 ft / 30 m 5,259 ft / 1,603 m 242.95° 259.95° Asphalt 0 ft / 0 m 205 ft / 62 m